createdAt,value
2017-07-31T00:00:05.747Z,16.93
2017-07-31T00:01:27.927Z,16.97
2017-07-31T00:02:50.396Z,17.01
2017-07-31T00:04:13.320Z,17
2017-07-31T00:05:35.483Z,16.97
2017-07-31T00:06:58.120Z,16.98
2017-07-31T00:08:20.282Z,16.98
2017-07-31T00:09:42.468Z,17.04
2017-07-31T00:11:04.130Z,17.01
2017-07-31T00:12:26.619Z,16.96
2017-07-31T00:13:48.142Z,16.88
2017-07-31T00:15:10.249Z,16.88
2017-07-31T00:16:32.101Z,16.88
2017-07-31T00:17:54.555Z,16.86
2017-07-31T00:19:16.140Z,16.94
2017-07-31T00:20:38.580Z,16.91
2017-07-31T00:22:00.724Z,16.83
2017-07-31T00:23:22.876Z,16.89
2017-07-31T00:24:44.500Z,16.94
2017-07-31T00:26:07.031Z,16.98
2017-07-31T00:27:29.510Z,16.94
2017-07-31T00:28:51.669Z,17
2017-07-31T00:30:13.500Z,16.98
2017-07-31T00:31:35.590Z,17.01
2017-07-31T00:32:56.808Z,17.08
2017-07-31T00:34:18.980Z,17.14
2017-07-31T00:35:40.920Z,17.15
2017-07-31T00:37:03.670Z,17.06
2017-07-31T00:38:25.950Z,17.07
2017-07-31T00:39:47.841Z,17.12
2017-07-31T00:41:09.692Z,17.12
2017-07-31T00:42:31.468Z,17.21
2017-07-31T00:43:53.070Z,17.16
2017-07-31T00:45:14.907Z,17.16
2017-07-31T00:46:37.419Z,17.16
2017-07-31T00:47:59.876Z,17.18
2017-07-31T00:49:21.709Z,17.21
2017-07-31T00:50:43.850Z,17.16
2017-07-31T00:52:05.689Z,17.19
2017-07-31T00:53:28.277Z,17.22
2017-07-31T00:54:50.418Z,17.34
2017-07-31T00:56:12.309Z,17.3
2017-07-31T00:57:34.588Z,17.33
2017-07-31T00:58:57.050Z,17.36
2017-07-31T01:00:19.189Z,17.37
2017-07-31T01:01:41.656Z,17.34
2017-07-31T01:03:03.800Z,17.34
2017-07-31T01:04:26.330Z,17.33
2017-07-31T01:05:48.813Z,17.33
2017-07-31T01:07:11.039Z,17.36
2017-07-31T01:08:32.876Z,17.31
2017-07-31T01:09:54.661Z,17.34
2017-07-31T01:11:16.840Z,17.36
2017-07-31T01:12:38.699Z,17.41
2017-07-31T01:14:00.520Z,17.33
2017-07-31T01:15:22.999Z,17.51
2017-07-31T01:16:45.147Z,17.46
2017-07-31T01:18:06.991Z,17.44
2017-07-31T01:19:29.471Z,17.46
2017-07-31T01:20:51.979Z,17.4
2017-07-31T01:22:13.838Z,17.51
2017-07-31T01:23:35.399Z,17.46
2017-07-31T01:24:57.891Z,17.46
2017-07-31T01:26:20.767Z,17.49
2017-07-31T01:27:43.225Z,17.44
2017-07-31T01:29:05.048Z,17.44
2017-07-31T01:30:26.952Z,17.51
2017-07-31T01:31:49.019Z,17.54
2017-07-31T01:33:11.361Z,17.46
2017-07-31T01:34:33.837Z,17.51
2017-07-31T01:35:55.829Z,17.52
2017-07-31T01:37:18.227Z,17.54
2017-07-31T01:38:40.067Z,17.46
2017-07-31T01:40:01.576Z,17.46
2017-07-31T01:41:23.146Z,17.48
2017-07-31T01:42:45.040Z,17.49
2017-07-31T01:44:06.883Z,17.46
2017-07-31T01:45:28.401Z,17.37
2017-07-31T01:46:49.610Z,17.46
2017-07-31T01:48:12.045Z,17.44
2017-07-31T01:49:34.656Z,17.49
2017-07-31T01:50:56.805Z,17.51
2017-07-31T01:52:18.646Z,17.48
2017-07-31T01:53:40.483Z,17.44
2017-07-31T01:55:02.420Z,17.41
2017-07-31T01:56:24.259Z,17.43
2017-07-31T01:57:46.094Z,17.52
2017-07-31T01:59:08.508Z,17.49
2017-07-31T02:00:30.337Z,17.43
2017-07-31T02:01:51.866Z,17.51
2017-07-31T02:03:13.689Z,17.46
2017-07-31T02:04:35.505Z,17.49
2017-07-31T02:05:57.740Z,17.44
2017-07-31T02:07:19.575Z,17.51
2017-07-31T02:08:40.802Z,17.58
2017-07-31T02:10:03.398Z,17.46
2017-07-31T02:11:25.360Z,17.48
2017-07-31T02:12:47.572Z,17.49
2017-07-31T02:14:10.040Z,17.52
2017-07-31T02:15:32.799Z,17.46
2017-07-31T02:16:54.390Z,17.49
2017-07-31T02:18:16.637Z,17.49
2017-07-31T02:19:39.104Z,17.49
2017-07-31T02:21:01.034Z,17.51
2017-07-31T02:22:23.210Z,17.52
2017-07-31T02:23:45.070Z,17.55
2017-07-31T02:25:06.588Z,17.46
2017-07-31T02:26:29.368Z,17.48
2017-07-31T02:27:50.936Z,17.48
2017-07-31T02:29:12.441Z,17.51
2017-07-31T02:30:34.281Z,17.55
2017-07-31T02:31:56.789Z,17.52
2017-07-31T02:33:18.941Z,17.54
2017-07-31T02:34:40.786Z,17.43
2017-07-31T02:36:02.623Z,17.43
2017-07-31T02:37:24.742Z,17.41
2017-07-31T02:38:46.969Z,17.36
2017-07-31T02:40:08.525Z,17.3
2017-07-31T02:41:30.370Z,17.4
2017-07-31T02:42:52.501Z,17.46
2017-07-31T02:44:14.034Z,17.48
2017-07-31T02:45:36.207Z,17.4
2017-07-31T02:46:57.420Z,17.41
2017-07-31T02:48:19.500Z,17.46
2017-07-31T02:49:41.979Z,17.49
2017-07-31T02:51:04.130Z,17.58
2017-07-31T02:52:25.982Z,17.46
2017-07-31T02:53:48.211Z,17.46
2017-07-31T02:55:09.402Z,17.41
2017-07-31T02:56:31.550Z,17.41
2017-07-31T02:57:53.419Z,17.49
2017-07-31T02:59:15.840Z,17.44
2017-07-31T03:00:37.351Z,17.49
2017-07-31T03:01:59.822Z,17.46
2017-07-31T03:03:21.661Z,17.51
2017-07-31T03:04:44.189Z,17.46
2017-07-31T03:06:06.209Z,17.34
2017-07-31T03:07:27.400Z,17.4
2017-07-31T03:08:48.930Z,17.26
2017-07-31T03:10:11.697Z,17.18
2017-07-31T03:11:33.530Z,17.15
2017-07-31T03:12:55.030Z,17.16
2017-07-31T03:14:16.858Z,17.19
2017-07-31T03:15:39.270Z,17.16
2017-07-31T03:17:01.120Z,17.25
2017-07-31T03:18:23.071Z,17.26
2017-07-31T03:19:45.229Z,17.37
2017-07-31T03:21:07.372Z,17.36
2017-07-31T03:22:29.838Z,17.3
2017-07-31T03:23:51.789Z,17.38
2017-07-31T03:25:14.002Z,17.26
2017-07-31T03:26:36.778Z,17.36
2017-07-31T03:27:58.600Z,17.28
2017-07-31T03:29:21.120Z,17.37
2017-07-31T03:30:42.960Z,17.28
2017-07-31T03:32:05.050Z,17.33
2017-07-31T03:33:26.926Z,17.26
2017-07-31T03:34:49.420Z,17.33
2017-07-31T03:36:10.938Z,17.28
2017-07-31T03:37:33.087Z,17.3
2017-07-31T03:38:55.241Z,17.22
2017-07-31T03:40:17.395Z,17.15
2017-07-31T03:41:39.230Z,17.14
2017-07-31T03:43:01.330Z,17.12
2017-07-31T03:44:23.593Z,17.08
2017-07-31T03:45:45.777Z,17.06
2017-07-31T03:47:07.701Z,17.04
2017-07-31T03:48:29.529Z,16.98
2017-07-31T03:49:51.443Z,17
2017-07-31T03:51:13.380Z,16.88
2017-07-31T03:52:35.297Z,16.91
2017-07-31T03:53:58.023Z,16.91
2017-07-31T03:55:19.878Z,16.82
2017-07-31T03:56:41.823Z,16.86
2017-07-31T03:58:03.721Z,16.88
2017-07-31T03:59:25.837Z,16.85
2017-07-31T04:00:48.150Z,16.86
2017-07-31T04:02:10.085Z,16.82
2017-07-31T04:03:31.920Z,16.89
2017-07-31T04:04:54.802Z,16.89
2017-07-31T04:06:16.042Z,16.89
2017-07-31T04:07:37.884Z,16.89
2017-07-31T04:09:00.346Z,16.82
2017-07-31T04:10:22.438Z,16.93
2017-07-31T04:11:44.980Z,16.91
2017-07-31T04:13:06.556Z,16.93
2017-07-31T04:14:28.201Z,16.88
2017-07-31T04:15:51.021Z,16.82
2017-07-31T04:17:13.221Z,16.82
2017-07-31T04:18:35.372Z,16.81
2017-07-31T04:19:57.901Z,16.81
2017-07-31T04:21:20.304Z,16.7
2017-07-31T04:22:42.241Z,16.68
2017-07-31T04:24:04.508Z,16.67
2017-07-31T04:25:26.159Z,16.53
2017-07-31T04:26:48.740Z,16.52
2017-07-31T04:28:10.308Z,16.53
2017-07-31T04:29:32.480Z,16.57
2017-07-31T04:30:54.067Z,16.46
2017-07-31T04:32:16.680Z,16.48
2017-07-31T04:33:37.962Z,16.48
2017-07-31T04:34:59.808Z,16.46
2017-07-31T04:36:21.530Z,16.41
2017-07-31T04:37:43.940Z,16.41
2017-07-31T04:39:05.765Z,16.43
2017-07-31T04:40:27.281Z,16.43
2017-07-31T04:41:49.103Z,16.57
2017-07-31T04:43:11.810Z,16.52
2017-07-31T04:44:33.650Z,16.66
2017-07-31T04:45:55.487Z,16.7
2017-07-31T04:47:17.331Z,16.79
2017-07-31T04:48:39.777Z,16.86
2017-07-31T04:50:01.340Z,16.93
2017-07-31T04:51:23.293Z,16.88
2017-07-31T04:52:45.505Z,16.98
2017-07-31T04:54:08.010Z,17.01
2017-07-31T04:55:29.863Z,17.03
2017-07-31T04:56:52.336Z,17.18
2017-07-31T04:58:14.547Z,17.21
2017-07-31T04:59:37.318Z,17.19
2017-07-31T05:00:59.164Z,17.28
2017-07-31T05:02:20.793Z,17.3
2017-07-31T05:03:43.451Z,17.31
2017-07-31T05:05:05.540Z,17.49
2017-07-31T05:06:27.698Z,17.44
2017-07-31T05:07:50.164Z,17.46
2017-07-31T05:09:11.362Z,17.54
2017-07-31T05:10:33.558Z,17.74
2017-07-31T05:11:55.182Z,17.79
2017-07-31T05:13:16.385Z,17.95
2017-07-31T05:14:38.551Z,18.3
2017-07-31T05:16:01.330Z,19.62
2017-07-31T05:17:23.159Z,21.5
2017-07-31T05:18:44.644Z,23.43
2017-07-31T05:20:06.149Z,25.09
2017-07-31T05:21:28.659Z,26.12
2017-07-31T05:22:50.811Z,27.24
2017-07-31T05:24:12.646Z,28.36
2017-07-31T05:25:34.235Z,28.9
2017-07-31T05:26:56.082Z,29.65
2017-07-31T05:28:17.970Z,30.02
2017-07-31T05:29:40.169Z,30.84
2017-07-31T05:31:02.331Z,31.2
2017-07-31T05:32:24.140Z,32.06
2017-07-31T05:33:46.270Z,32.33
2017-07-31T05:35:07.790Z,32.78
2017-07-31T05:36:30.030Z,32.67
2017-07-31T05:37:51.932Z,32.81
2017-07-31T05:39:14.121Z,32.89
2017-07-31T05:40:36.293Z,32.94
2017-07-31T05:41:58.781Z,33.09
2017-07-31T05:43:20.990Z,33.26
2017-07-31T05:44:42.842Z,33.37
2017-07-31T05:46:05.029Z,33.68
2017-07-31T05:47:27.684Z,34.22
2017-07-31T05:48:50.147Z,34.66
2017-07-31T05:50:12.019Z,34.66
2017-07-31T05:51:34.195Z,34.88
2017-07-31T05:52:56.667Z,35.36
2017-07-31T05:54:19.211Z,35.41
2017-07-31T05:55:41.390Z,35.72
2017-07-31T05:57:03.991Z,35.99
2017-07-31T05:58:26.146Z,36.22
2017-07-31T05:59:48.329Z,36.51
2017-07-31T06:01:10.511Z,36.64
2017-07-31T06:02:32.392Z,36.87
2017-07-31T06:03:54.889Z,36.72
2017-07-31T06:05:17.052Z,36.43
2017-07-31T06:06:38.930Z,36.87
2017-07-31T06:08:01.093Z,36.65
2017-07-31T06:09:23.579Z,37.24
2017-07-31T06:10:46.349Z,37.39
2017-07-31T06:12:08.828Z,37.84
2017-07-31T06:13:30.392Z,37.82
2017-07-31T06:14:52.382Z,38.19
2017-07-31T06:16:14.863Z,38.71
2017-07-31T06:17:36.732Z,38.6
2017-07-31T06:18:58.610Z,38.41
2017-07-31T06:20:20.282Z,38.35
2017-07-31T06:21:42.088Z,38.6
2017-07-31T06:23:04.422Z,39.07
2017-07-31T06:24:25.969Z,39.6
2017-07-31T06:25:47.503Z,39.84
2017-07-31T06:27:10.028Z,40.12
2017-07-31T06:28:31.884Z,40.32
2017-07-31T06:29:53.762Z,40.43
2017-07-31T06:31:15.662Z,40.74
2017-07-31T06:32:37.843Z,40.58
2017-07-31T06:34:00.025Z,40.7
2017-07-31T06:35:21.560Z,40.83
2017-07-31T06:36:43.090Z,41.37
2017-07-31T06:38:05.283Z,41.54
2017-07-31T06:39:27.440Z,41.39
2017-07-31T06:40:49.659Z,41.14
2017-07-31T06:42:11.201Z,41.35
2017-07-31T06:43:33.680Z,41.37
2017-07-31T06:44:55.612Z,41.25
2017-07-31T06:46:17.480Z,41.67
2017-07-31T06:47:40.166Z,41.76
2017-07-31T06:49:02.391Z,41.94
2017-07-31T06:50:24.641Z,42.11
2017-07-31T06:51:47.130Z,42.02
2017-07-31T06:53:09.010Z,41.9
2017-07-31T06:54:31.139Z,42.24
2017-07-31T06:55:53.320Z,42.23
2017-07-31T06:57:14.540Z,42.11
2017-07-31T06:58:36.140Z,42.2
2017-07-31T06:59:58.387Z,42.39
2017-07-31T07:01:20.267Z,42.36
2017-07-31T07:02:42.774Z,42.3
2017-07-31T07:04:04.963Z,42.12
2017-07-31T07:05:27.420Z,41.63
2017-07-31T07:06:49.281Z,41.35
2017-07-31T07:08:11.153Z,41.42
2017-07-31T07:09:33.669Z,41.14
2017-07-31T07:10:55.776Z,41.14
2017-07-31T07:12:17.739Z,40.69
2017-07-31T07:13:39.920Z,40.72
2017-07-31T07:15:01.943Z,40.65
2017-07-31T07:16:23.790Z,40.84
2017-07-31T07:17:45.976Z,40.87
2017-07-31T07:19:07.536Z,40.83
2017-07-31T07:20:30.053Z,40.99
2017-07-31T07:21:52.847Z,40.72
2017-07-31T07:23:15.018Z,40.45
2017-07-31T07:24:36.573Z,40.26
2017-07-31T07:25:58.779Z,40.1
2017-07-31T07:27:21.049Z,39.89
2017-07-31T07:28:42.689Z,40.27
2017-07-31T07:30:04.981Z,40.08
2017-07-31T07:31:26.510Z,40.72
2017-07-31T07:32:48.632Z,40.6
2017-07-31T07:34:10.168Z,40.32
2017-07-31T07:35:32.359Z,40.7
2017-07-31T07:36:54.299Z,40.91
2017-07-31T07:38:17.149Z,40.87
2017-07-31T07:39:39.390Z,40.74
2017-07-31T07:41:01.569Z,40.25
2017-07-31T07:42:23.730Z,39.59
2017-07-31T07:43:45.887Z,39.41
2017-07-31T07:45:07.455Z,39.79
2017-07-31T07:46:29.643Z,39.96
2017-07-31T07:47:51.723Z,40.15
2017-07-31T07:49:14.216Z,39.96
2017-07-31T07:50:36.177Z,38.91
2017-07-31T07:51:58.050Z,36.75
2017-07-31T07:53:20.221Z,35.34
2017-07-31T07:54:42.984Z,34.59
2017-07-31T07:56:05.179Z,34.52
2017-07-31T07:57:27.739Z,34.65
2017-07-31T07:58:49.602Z,35.21
2017-07-31T08:00:12.548Z,35.4
2017-07-31T08:01:35.037Z,35.04
2017-07-31T08:02:57.143Z,35.16
2017-07-31T08:04:19.317Z,34.89
2017-07-31T08:05:41.428Z,34.65
2017-07-31T08:07:03.936Z,34.02
2017-07-31T08:08:25.784Z,33.31
2017-07-31T08:09:47.955Z,33.12
2017-07-31T08:11:10.077Z,33.42
2017-07-31T08:12:32.312Z,33.79
2017-07-31T08:13:54.792Z,33.54
2017-07-31T08:15:16.967Z,32.66
2017-07-31T08:16:39.750Z,31.76
2017-07-31T08:18:02.430Z,30.7
2017-07-31T08:19:24.290Z,29.82
2017-07-31T08:20:46.461Z,29.05
2017-07-31T08:22:08.909Z,28.44
2017-07-31T08:23:30.813Z,27.96
2017-07-31T08:24:52.966Z,27.47
2017-07-31T08:26:15.472Z,27.19
2017-07-31T08:27:37.330Z,26.87
2017-07-31T08:28:58.872Z,26.8
2017-07-31T08:30:21.062Z,26.57
2017-07-31T08:31:43.587Z,26.4
2017-07-31T08:33:05.345Z,26.36
2017-07-31T08:34:27.131Z,26.12
2017-07-31T08:35:49.299Z,25.99
2017-07-31T08:37:11.206Z,25.98
2017-07-31T08:38:33.829Z,26.02
2017-07-31T08:39:55.793Z,26.02
2017-07-31T08:41:18.102Z,25.91
2017-07-31T08:42:39.948Z,26.01
2017-07-31T08:44:01.448Z,25.97
2017-07-31T08:45:23.424Z,25.91
2017-07-31T08:46:45.678Z,26.02
2017-07-31T08:48:07.545Z,26.07
2017-07-31T08:49:30.335Z,26.07
2017-07-31T08:50:51.888Z,26.06
2017-07-31T08:52:13.514Z,26.06
2017-07-31T08:53:36.113Z,25.99
2017-07-31T08:54:58.836Z,26.06
2017-07-31T08:56:21.032Z,26.13
2017-07-31T08:57:42.673Z,26.17
2017-07-31T08:59:04.528Z,26.12
2017-07-31T09:00:26.956Z,26.13
2017-07-31T09:01:48.310Z,26.15
2017-07-31T09:03:10.785Z,26.01
2017-07-31T09:04:32.759Z,26.02
2017-07-31T09:05:55.428Z,26.05
2017-07-31T09:07:17.030Z,26.02
2017-07-31T09:08:39.190Z,26.01
2017-07-31T09:10:01.164Z,26.02
2017-07-31T09:11:23.363Z,26.02
2017-07-31T09:12:44.901Z,26.13
2017-07-31T09:14:06.465Z,26.13
2017-07-31T09:15:29.081Z,26.09
2017-07-31T09:16:51.534Z,26.12
2017-07-31T09:18:14.037Z,26.12
2017-07-31T09:19:36.223Z,26.15
2017-07-31T09:20:58.363Z,26.15
2017-07-31T09:22:20.625Z,25.95
2017-07-31T09:23:42.200Z,25.97
2017-07-31T09:25:04.682Z,25.94
2017-07-31T09:26:26.968Z,25.91
2017-07-31T09:27:49.665Z,25.79
2017-07-31T09:29:11.867Z,25.7
2017-07-31T09:30:34.100Z,25.69
2017-07-31T09:31:56.701Z,25.69
2017-07-31T09:33:18.858Z,25.67
2017-07-31T09:34:41.060Z,25.67
2017-07-31T09:36:03.382Z,25.62
2017-07-31T09:37:25.564Z,25.69
2017-07-31T09:38:47.744Z,25.73
2017-07-31T09:40:10.010Z,25.7
2017-07-31T09:41:31.529Z,25.8
2017-07-31T09:42:53.690Z,25.73
2017-07-31T09:44:15.780Z,25.76
2017-07-31T09:45:37.630Z,25.85
2017-07-31T09:46:59.524Z,25.83
2017-07-31T09:48:22.099Z,25.99
2017-07-31T09:49:43.930Z,25.97
2017-07-31T09:51:06.070Z,25.97
2017-07-31T09:52:28.022Z,25.98
2017-07-31T09:53:50.206Z,25.92
2017-07-31T09:55:12.619Z,25.99
2017-07-31T09:56:34.579Z,25.98
2017-07-31T09:57:56.449Z,26.06
2017-07-31T09:59:19.080Z,26.02
2017-07-31T10:00:41.490Z,26.02
2017-07-31T10:02:03.669Z,26.12
2017-07-31T10:03:25.839Z,26.09
2017-07-31T10:04:48.361Z,26.1
2017-07-31T10:06:10.799Z,26.25
2017-07-31T10:07:33.300Z,26.23
2017-07-31T10:08:55.189Z,26.26
2017-07-31T10:10:17.145Z,26.13
2017-07-31T10:11:39.327Z,25.95
2017-07-31T10:13:01.309Z,26.3
2017-07-31T10:14:23.146Z,26.32
2017-07-31T10:15:45.013Z,26.28
2017-07-31T10:17:07.800Z,26.4
2017-07-31T10:18:29.669Z,26.45
2017-07-31T10:19:51.655Z,26.66
2017-07-31T10:21:13.499Z,26.82
2017-07-31T10:22:35.969Z,27
2017-07-31T10:23:57.839Z,26.95
2017-07-31T10:25:20.003Z,26.99
2017-07-31T10:26:42.166Z,26.95
2017-07-31T10:28:04.328Z,27.13
2017-07-31T10:29:26.586Z,27.27
2017-07-31T10:30:48.752Z,27.54
2017-07-31T10:32:10.920Z,27.93
2017-07-31T10:33:33.711Z,28.03
2017-07-31T10:34:55.890Z,28.41
2017-07-31T10:36:18.094Z,28.74
2017-07-31T10:37:40.283Z,28.92
2017-07-31T10:39:02.777Z,28.98
2017-07-31T10:40:24.960Z,29.05
2017-07-31T10:41:46.804Z,29.55
2017-07-31T10:43:08.646Z,29.53
2017-07-31T10:44:31.401Z,29.53
2017-07-31T10:45:53.249Z,29.53
2017-07-31T10:47:15.422Z,29.39
2017-07-31T10:48:37.965Z,29.31
2017-07-31T10:50:00.724Z,29.42
2017-07-31T10:51:23.229Z,29.63
2017-07-31T10:52:45.806Z,29.41
2017-07-31T10:54:08.311Z,29.09
2017-07-31T10:55:31.065Z,29.16
2017-07-31T10:56:52.940Z,29.19
2017-07-31T10:58:15.431Z,28.96
2017-07-31T10:59:37.912Z,28.78
2017-07-31T11:01:00.357Z,28.48
2017-07-31T11:02:22.526Z,28.24
2017-07-31T11:03:45.029Z,28.11
2017-07-31T11:05:07.184Z,28.18
2017-07-31T11:06:29.426Z,28.39
2017-07-31T11:07:51.729Z,28.43
2017-07-31T11:09:14.226Z,28.67
2017-07-31T11:10:36.072Z,29
2017-07-31T11:11:58.347Z,29.18
2017-07-31T11:13:20.540Z,29.06
2017-07-31T11:14:42.514Z,29.09
2017-07-31T11:16:04.709Z,28.93
2017-07-31T11:17:26.555Z,28.67
2017-07-31T11:18:49.026Z,28.67
2017-07-31T11:20:11.304Z,28.62
2017-07-31T11:21:33.800Z,28.67
2017-07-31T11:22:56.530Z,28.66
2017-07-31T11:24:19.100Z,28.46
2017-07-31T11:25:41.341Z,28.43
2017-07-31T11:27:03.600Z,28.67
2017-07-31T11:28:26.013Z,28.98
2017-07-31T11:29:48.179Z,29.34
2017-07-31T11:31:10.346Z,29.63
2017-07-31T11:32:32.829Z,29.87
2017-07-31T11:33:55.257Z,30.15
2017-07-31T11:35:17.770Z,30.15
2017-07-31T11:36:39.956Z,29.98
2017-07-31T11:38:02.119Z,29.48
2017-07-31T11:39:24.701Z,29.18
2017-07-31T11:40:46.867Z,29.28
2017-07-31T11:42:09.369Z,29.16
2017-07-31T11:43:31.538Z,28.98
2017-07-31T11:44:54.049Z,28.88
2017-07-31T11:46:16.518Z,28.93
2017-07-31T11:47:39.018Z,29
2017-07-31T11:49:00.891Z,29.33
2017-07-31T11:50:23.373Z,29.39
2017-07-31T11:51:45.249Z,29.49
2017-07-31T11:53:06.786Z,29.51
2017-07-31T11:54:29.291Z,29.36
2017-07-31T11:55:51.850Z,29.43
2017-07-31T11:57:14.133Z,29.33
2017-07-31T11:58:36.309Z,29.51
2017-07-31T11:59:58.199Z,30.07
2017-07-31T12:01:20.387Z,30.39
2017-07-31T12:02:42.553Z,30.46
2017-07-31T12:04:04.727Z,30.39
2017-07-31T12:05:26.269Z,30.31
2017-07-31T12:06:51.881Z,30.26
2017-07-31T12:08:13.749Z,30.2
2017-07-31T12:09:35.930Z,30.02
2017-07-31T12:10:57.789Z,30.16
2017-07-31T12:12:20.505Z,29.92
2017-07-31T12:13:42.061Z,29.85
2017-07-31T12:15:04.700Z,29.89
2017-07-31T12:16:26.878Z,30.15
2017-07-31T12:17:48.971Z,30.37
2017-07-31T12:19:11.010Z,30.49
2017-07-31T12:20:33.505Z,30.69
2017-07-31T12:21:56.004Z,30.91
2017-07-31T12:23:17.468Z,30.84
2017-07-31T12:24:40.124Z,30.62
2017-07-31T12:26:02.297Z,30.43
2017-07-31T12:27:24.489Z,30.32
2017-07-31T12:28:47.080Z,30.38
2017-07-31T12:30:08.941Z,30.34
2017-07-31T12:31:30.806Z,30.32
2017-07-31T12:32:52.688Z,30.08
2017-07-31T12:34:15.645Z,29.74
2017-07-31T12:35:37.481Z,29.71
2017-07-31T12:36:59.401Z,29.89
2017-07-31T12:38:22.020Z,30.17
2017-07-31T12:39:44.503Z,30.23
2017-07-31T12:41:06.490Z,30.34
2017-07-31T12:42:28.968Z,30.49
2017-07-31T12:43:51.144Z,29.97
2017-07-31T12:45:13.942Z,29.78
2017-07-31T12:46:36.242Z,29.79
2017-07-31T12:47:58.578Z,29.79
2017-07-31T12:49:20.870Z,29.92
2017-07-31T12:50:43.365Z,29.94
2017-07-31T12:52:04.987Z,30.01
2017-07-31T12:53:27.179Z,30.01
2017-07-31T12:54:49.370Z,30.16
2017-07-31T12:56:12.290Z,29.74
2017-07-31T12:57:34.917Z,29.37
2017-07-31T12:58:57.408Z,29.24
2017-07-31T13:00:19.604Z,29.09
2017-07-31T13:01:42.047Z,29.28
2017-07-31T13:03:04.243Z,29.31
2017-07-31T13:04:26.420Z,29.48
2017-07-31T13:05:49.006Z,29.57
2017-07-31T13:07:11.198Z,29.19
2017-07-31T13:08:32.429Z,29.49
2017-07-31T13:09:54.929Z,29.48
2017-07-31T13:11:17.111Z,29.43
2017-07-31T13:12:39.589Z,29.37
2017-07-31T13:14:01.420Z,29.27
2017-07-31T13:15:23.919Z,28.9
2017-07-31T13:16:45.801Z,28.86
2017-07-31T13:18:08.321Z,28.55
2017-07-31T13:19:30.478Z,28.22
2017-07-31T13:20:52.770Z,27.94
2017-07-31T13:22:15.049Z,27.46
2017-07-31T13:23:37.800Z,26.81
2017-07-31T13:25:00.281Z,26.29
2017-07-31T13:26:22.148Z,26.13
2017-07-31T13:27:44.615Z,26.15
2017-07-31T13:29:07.168Z,26.29
2017-07-31T13:30:29.028Z,26.63
2017-07-31T13:31:50.888Z,26.94
2017-07-31T13:33:13.048Z,27.19
2017-07-31T13:34:35.779Z,27.29
2017-07-31T13:35:57.641Z,27.4
2017-07-31T13:37:19.936Z,27.31
2017-07-31T13:38:42.438Z,27.27
2017-07-31T13:40:05.178Z,27.12
2017-07-31T13:41:27.520Z,27.17
2017-07-31T13:42:50.010Z,27.13
2017-07-31T13:44:12.497Z,27.29
2017-07-31T13:45:35.576Z,27.57
2017-07-31T13:46:58.110Z,27.9
2017-07-31T13:48:20.708Z,27.92
2017-07-31T13:49:42.602Z,27.81
2017-07-31T13:51:05.448Z,28.25
2017-07-31T13:52:27.937Z,28.61
2017-07-31T13:53:49.478Z,28.73
2017-07-31T13:55:11.950Z,28.86
2017-07-31T13:56:34.069Z,28.74
2017-07-31T13:57:55.958Z,28.64
2017-07-31T13:59:18.217Z,28.41
2017-07-31T14:00:40.467Z,28.31
2017-07-31T14:02:02.880Z,28.18
2017-07-31T14:03:25.417Z,28.15
2017-07-31T14:04:47.256Z,28.06
2017-07-31T14:06:09.451Z,27.78
2017-07-31T14:07:31.970Z,27.5
2017-07-31T14:08:53.509Z,27.09
2017-07-31T14:10:15.733Z,27.18
2017-07-31T14:11:37.912Z,27.07
2017-07-31T14:13:00.751Z,27.31
2017-07-31T14:14:22.935Z,27.51
2017-07-31T14:15:45.574Z,27.55
2017-07-31T14:17:07.438Z,27.66
2017-07-31T14:18:29.560Z,27.88
2017-07-31T14:19:52.245Z,28
2017-07-31T14:21:14.734Z,28.12
2017-07-31T14:22:37.244Z,28.18
2017-07-31T14:23:59.390Z,27.9
2017-07-31T14:25:21.625Z,27.54
2017-07-31T14:26:43.799Z,27.69
2017-07-31T14:28:06.351Z,28
2017-07-31T14:29:28.831Z,28.14
2017-07-31T14:30:51.428Z,28.37
2017-07-31T14:32:13.950Z,28.22
2017-07-31T14:33:36.115Z,28.17
2017-07-31T14:34:58.898Z,28.39
2017-07-31T14:36:20.765Z,28.46
2017-07-31T14:37:42.939Z,28.62
2017-07-31T14:39:05.178Z,28.62
2017-07-31T14:40:27.096Z,28.64
2017-07-31T14:41:49.252Z,28.48
2017-07-31T14:43:10.778Z,28.29
2017-07-31T14:44:32.689Z,28.03
2017-07-31T14:45:55.480Z,27.79
2017-07-31T14:47:18.096Z,27.55
2017-07-31T14:48:40.583Z,27.57
2017-07-31T14:50:02.857Z,27.51
2017-07-31T14:51:25.488Z,27.43
2017-07-31T14:52:47.957Z,27.39
2017-07-31T14:54:10.301Z,27.37
2017-07-31T14:55:32.800Z,27.41
2017-07-31T14:56:55.718Z,27.6
2017-07-31T14:58:18.228Z,27.6
2017-07-31T14:59:40.088Z,27.62
2017-07-31T15:01:02.370Z,27.6
2017-07-31T15:02:25.226Z,27.6
2017-07-31T15:03:47.180Z,27.55
2017-07-31T15:05:09.118Z,27.46
2017-07-31T15:06:31.607Z,27.24
2017-07-31T15:07:54.540Z,27.32
2017-07-31T15:09:16.711Z,27.25
2017-07-31T15:10:39.239Z,26.95
2017-07-31T15:12:01.119Z,26.85
2017-07-31T15:13:23.721Z,26.8
2017-07-31T15:14:45.574Z,26.65
2017-07-31T15:16:08.179Z,26.52
2017-07-31T15:17:29.709Z,26.37
2017-07-31T15:18:52.130Z,26.36
2017-07-31T15:20:14.739Z,26.32
2017-07-31T15:21:36.913Z,26.28
2017-07-31T15:22:59.099Z,26.17
2017-07-31T15:24:20.942Z,26.35
2017-07-31T15:25:43.449Z,26.51
2017-07-31T15:27:05.312Z,26.87
2017-07-31T15:28:27.188Z,27.12
2017-07-31T15:29:49.628Z,27.22
2017-07-31T15:31:11.799Z,27.19
2017-07-31T15:32:34.303Z,27.07
2017-07-31T15:33:56.810Z,27.04
2017-07-31T15:35:19.601Z,26.87
2017-07-31T15:36:41.156Z,26.81
2017-07-31T15:38:03.648Z,26.82
2017-07-31T15:39:25.921Z,26.85
2017-07-31T15:40:48.725Z,26.82
2017-07-31T15:42:10.785Z,26.81
2017-07-31T15:43:33.291Z,26.85
2017-07-31T15:44:55.467Z,26.76
2017-07-31T15:46:18.409Z,26.8
2017-07-31T15:47:40.948Z,26.84
2017-07-31T15:49:03.157Z,26.73
2017-07-31T15:50:25.340Z,26.58
2017-07-31T15:51:47.593Z,26.66
2017-07-31T15:53:09.840Z,26.51
2017-07-31T15:54:32.361Z,26.4
2017-07-31T15:55:54.988Z,26.35
2017-07-31T15:57:17.489Z,26.3
2017-07-31T15:58:40.048Z,26.17
2017-07-31T16:00:02.351Z,25.98
2017-07-31T16:01:24.545Z,25.88
2017-07-31T16:02:47.052Z,25.85
2017-07-31T16:04:08.589Z,25.79
2017-07-31T16:05:31.009Z,25.73
2017-07-31T16:06:53.314Z,25.9
2017-07-31T16:08:15.728Z,25.91
2017-07-31T16:09:37.609Z,25.95
2017-07-31T16:10:59.788Z,25.79
2017-07-31T16:12:22.068Z,25.69
2017-07-31T16:13:44.540Z,25.52
2017-07-31T16:15:07.079Z,25.42
2017-07-31T16:16:28.950Z,25.39
2017-07-31T16:17:51.465Z,25.52
2017-07-31T16:19:14.259Z,25.64
2017-07-31T16:20:35.879Z,25.7
2017-07-31T16:21:57.846Z,25.72
2017-07-31T16:23:20.010Z,25.73
2017-07-31T16:24:42.460Z,25.75
2017-07-31T16:26:05.042Z,25.72
2017-07-31T16:27:27.528Z,25.72
2017-07-31T16:28:50.115Z,25.77
2017-07-31T16:30:12.555Z,25.94
2017-07-31T16:31:34.839Z,26.21
2017-07-31T16:32:57.340Z,26.57
2017-07-31T16:34:19.858Z,26.67
2017-07-31T16:35:41.682Z,26.82
2017-07-31T16:37:04.205Z,26.6
2017-07-31T16:38:26.441Z,26.6
2017-07-31T16:39:49.003Z,26.48
2017-07-31T16:41:11.523Z,26.32
2017-07-31T16:42:33.070Z,26.13
2017-07-31T16:43:55.590Z,26.02
2017-07-31T16:45:18.196Z,25.94
2017-07-31T16:46:41.068Z,25.83
2017-07-31T16:48:02.935Z,25.55
2017-07-31T16:49:25.460Z,25.42
2017-07-31T16:50:47.638Z,25.54
2017-07-31T16:52:09.587Z,25.51
2017-07-31T16:53:31.816Z,25.46
2017-07-31T16:54:54.320Z,25.21
2017-07-31T16:56:16.831Z,25.24
2017-07-31T16:57:39.333Z,25.27
2017-07-31T16:59:01.957Z,25.15
2017-07-31T17:00:24.138Z,25.23
2017-07-31T17:01:46.030Z,25.17
2017-07-31T17:03:08.590Z,25.02
2017-07-31T17:04:30.445Z,25.1
2017-07-31T17:05:52.736Z,25.18
2017-07-31T17:07:15.279Z,25.06
2017-07-31T17:08:38.189Z,25.09
2017-07-31T17:10:00.382Z,24.84
2017-07-31T17:11:22.893Z,24.78
2017-07-31T17:12:44.786Z,24.84
2017-07-31T17:14:07.280Z,24.77
2017-07-31T17:15:29.782Z,24.85
2017-07-31T17:16:51.977Z,24.8
2017-07-31T17:18:14.168Z,24.87
2017-07-31T17:19:36.327Z,24.81
2017-07-31T17:20:58.538Z,24.55
2017-07-31T17:22:20.834Z,24.4
2017-07-31T17:23:42.688Z,24.2
2017-07-31T17:25:05.177Z,24.13
2017-07-31T17:26:27.496Z,24.03
2017-07-31T17:27:49.673Z,24
2017-07-31T17:29:11.530Z,24.05
2017-07-31T17:30:33.988Z,23.95
2017-07-31T17:31:56.224Z,24.03
2017-07-31T17:33:18.865Z,24.16
2017-07-31T17:34:41.047Z,24.28
2017-07-31T17:36:03.182Z,24.18
2017-07-31T17:37:25.695Z,24.09
2017-07-31T17:38:47.298Z,24.24
2017-07-31T17:40:09.488Z,24.24
2017-07-31T17:41:31.928Z,24.27